createdAt,value
2023-05-20T00:00:56.419Z,4.93
2023-05-20T00:03:25.378Z,4.78
2023-05-20T00:05:53.107Z,5.28
2023-05-20T00:08:20.574Z,5.03
2023-05-20T00:10:48.110Z,5.70
2023-05-20T00:13:15.660Z,5.40
2023-05-20T00:15:43.197Z,4.82
2023-05-20T00:18:10.757Z,4.78
2023-05-20T00:20:39.642Z,4.65
2023-05-20T00:23:07.133Z,4.72
2023-05-20T00:25:34.852Z,4.43
2023-05-20T00:28:02.542Z,4.18
2023-05-20T00:30:30.093Z,4.65
2023-05-20T00:32:57.596Z,4.60
2023-05-20T00:35:25.079Z,4.63
2023-05-20T00:37:53.935Z,6.40
2023-05-20T00:40:22.231Z,5.72
2023-05-20T00:42:49.706Z,5.75
2023-05-20T00:45:17.285Z,4.80
2023-05-20T00:47:45.143Z,4.97
2023-05-20T00:50:12.807Z,5.00
2023-05-20T00:52:41.544Z,4.40
2023-05-20T00:55:10.891Z,4.35
2023-05-20T00:57:38.371Z,5.55
2023-05-20T01:00:08.406Z,5.47
2023-05-20T01:02:35.925Z,7.47
2023-05-20T01:05:03.758Z,8.25
2023-05-20T01:07:31.861Z,9.13
2023-05-20T01:10:00.032Z,10.98
2023-05-20T01:12:32.707Z,10.93
2023-05-20T01:15:09.497Z,8.13
2023-05-20T01:17:40.358Z,7.63
2023-05-20T01:20:10.708Z,6.55
2023-05-20T01:22:40.098Z,5.07
2023-05-20T01:25:08.106Z,5.38
2023-05-20T01:27:35.787Z,5.25
2023-05-20T01:30:03.410Z,4.22
2023-05-20T01:32:35.711Z,4.85
2023-05-20T01:35:04.664Z,4.40
2023-05-20T01:37:33.207Z,4.25
2023-05-20T01:40:02.343Z,3.90
2023-05-20T01:42:30.214Z,4.28
2023-05-20T01:44:57.843Z,4.45
2023-05-20T01:47:25.653Z,4.10
2023-05-20T01:49:54.092Z,4.80
2023-05-20T01:52:22.679Z,3.90
2023-05-20T01:54:51.761Z,4.40
2023-05-20T01:57:22.068Z,4.80
2023-05-20T01:59:49.801Z,4.32
2023-05-20T02:02:17.835Z,4.90
2023-05-20T02:04:48.180Z,4.40
2023-05-20T02:07:15.830Z,4.78
2023-05-20T02:09:43.525Z,5.15
2023-05-20T02:12:16.361Z,4.88
2023-05-20T02:14:45.770Z,5.13
2023-05-20T02:17:14.504Z,5.13
2023-05-20T02:19:42.084Z,4.78
2023-05-20T02:22:09.599Z,4.35
2023-05-20T02:24:37.180Z,4.50
2023-05-20T02:27:06.173Z,4.63
2023-05-20T02:29:33.774Z,4.43
2023-05-20T02:32:02.647Z,4.25
2023-05-20T02:34:31.552Z,4.22
2023-05-20T02:36:59.245Z,4.88
2023-05-20T02:39:28.311Z,4.50
2023-05-20T02:41:56.212Z,5.45
2023-05-20T02:44:23.716Z,5.38
2023-05-20T02:46:51.368Z,4.82
2023-05-20T02:49:20.342Z,4.85
2023-05-20T02:51:47.826Z,5.15
2023-05-20T02:54:15.445Z,4.78
2023-05-20T02:56:43.006Z,5.03
2023-05-20T02:59:10.552Z,5.03
2023-05-20T03:01:38.132Z,5.18
2023-05-20T03:04:05.744Z,4.97
2023-05-20T03:06:34.877Z,5.22
2023-05-20T03:09:02.679Z,5.50
2023-05-20T03:11:30.162Z,5.20
2023-05-20T03:13:57.679Z,4.57
2023-05-20T03:16:25.415Z,4.90
2023-05-20T03:18:54.458Z,4.65
2023-05-20T03:21:23.779Z,5.05
2023-05-20T03:23:52.691Z,4.50
2023-05-20T03:26:21.684Z,4.88
2023-05-20T03:28:49.183Z,4.97
2023-05-20T03:31:17.554Z,4.72
2023-05-20T03:33:46.019Z,4.20
2023-05-20T03:36:13.569Z,5.20
2023-05-20T03:38:41.192Z,4.38
2023-05-20T03:41:10.096Z,4.60
2023-05-20T03:43:37.594Z,4.63
2023-05-20T03:46:05.148Z,4.68
2023-05-20T03:48:32.671Z,4.47
2023-05-20T03:51:01.807Z,4.55
2023-05-20T03:53:29.353Z,4.45
2023-05-20T03:55:56.833Z,4.68
2023-05-20T03:58:26.266Z,4.43
2023-05-20T04:00:53.798Z,4.35
2023-05-20T04:03:22.689Z,4.43
2023-05-20T04:05:50.416Z,4.45
2023-05-20T04:08:18.804Z,4.18
2023-05-20T04:10:47.006Z,4.50
2023-05-20T04:13:15.533Z,4.03
2023-05-20T04:15:44.421Z,4.18
2023-05-20T04:18:11.975Z,3.88
2023-05-20T04:20:41.322Z,4.03
2023-05-20T04:23:08.906Z,3.63
2023-05-20T04:25:36.956Z,4.30
2023-05-20T04:28:04.881Z,3.95
2023-05-20T04:30:33.392Z,4.18
2023-05-20T04:33:03.450Z,4.15
2023-05-20T04:35:31.449Z,3.80
2023-05-20T04:37:59.284Z,4.78
2023-05-20T04:40:27.354Z,4.28
2023-05-20T04:42:55.797Z,5.00
2023-05-20T04:45:23.903Z,4.63
2023-05-20T04:47:54.972Z,4.32
2023-05-20T04:50:23.873Z,4.50
2023-05-20T04:52:51.652Z,5.03
2023-05-20T04:55:21.452Z,3.90
2023-05-20T04:57:49.143Z,4.53
2023-05-20T05:00:16.931Z,3.95
2023-05-20T05:02:44.504Z,4.45
2023-05-20T05:05:12.090Z,3.90
2023-05-20T05:07:40.914Z,4.07
2023-05-20T05:10:09.474Z,3.80
2023-05-20T05:12:36.975Z,4.15
2023-05-20T05:15:05.070Z,4.15
2023-05-20T05:17:32.618Z,3.72
2023-05-20T05:20:00.237Z,4.38
2023-05-20T05:22:27.727Z,4.18
2023-05-20T05:24:56.644Z,4.05
2023-05-20T05:27:24.192Z,4.35
2023-05-20T05:29:51.680Z,4.07
2023-05-20T05:32:19.265Z,6.72
2023-05-20T05:34:46.888Z,4.63
2023-05-20T05:37:14.424Z,4.72
2023-05-20T05:39:41.954Z,4.35
2023-05-20T05:42:10.775Z,4.50
2023-05-20T05:44:38.347Z,3.85
2023-05-20T05:47:06.647Z,4.05
2023-05-20T05:49:34.940Z,3.80
2023-05-20T05:52:02.457Z,4.25
2023-05-20T05:54:30.222Z,4.40
2023-05-20T05:56:57.819Z,4.85
2023-05-20T05:59:26.706Z,4.97
2023-05-20T06:01:54.239Z,5.07
2023-05-20T06:04:21.929Z,5.05
2023-05-20T06:06:49.640Z,5.30
2023-05-20T06:09:17.156Z,5.55
2023-05-20T06:11:44.736Z,4.60
2023-05-20T06:14:12.337Z,4.72
2023-05-20T06:16:41.259Z,4.00
2023-05-20T06:19:09.327Z,4.30
2023-05-20T06:21:37.043Z,4.20
2023-05-20T06:24:04.862Z,4.45
2023-05-20T06:26:32.424Z,4.28
2023-05-20T06:28:59.942Z,4.13
2023-05-20T06:31:27.619Z,4.20
2023-05-20T06:33:56.998Z,4.57
2023-05-20T06:36:24.486Z,4.00
2023-05-20T06:38:51.980Z,3.67
2023-05-20T06:41:19.734Z,5.10
2023-05-20T06:43:47.931Z,4.90
2023-05-20T06:46:15.519Z,4.47
2023-05-20T06:48:43.113Z,4.22
2023-05-20T06:51:11.968Z,4.25
2023-05-20T06:53:39.458Z,4.32
2023-05-20T06:56:07.146Z,4.28
2023-05-20T06:58:34.692Z,4.40
2023-05-20T07:01:02.207Z,4.00
2023-05-20T07:03:29.807Z,4.07
2023-05-20T07:05:57.360Z,4.88
2023-05-20T07:08:26.318Z,4.90
2023-05-20T07:10:56.523Z,4.88
2023-05-20T07:13:24.212Z,5.15
2023-05-20T07:15:51.708Z,4.68
2023-05-20T07:18:19.448Z,5.10
2023-05-20T07:20:46.998Z,4.70
2023-05-20T07:23:15.750Z,4.75
2023-05-20T07:25:44.706Z,4.60
2023-05-20T07:28:12.218Z,4.93
2023-05-20T07:30:39.720Z,4.90
2023-05-20T07:33:07.369Z,5.65
2023-05-20T07:35:34.944Z,5.65
2023-05-20T07:38:02.633Z,6.57
2023-05-20T07:40:30.087Z,6.40
2023-05-20T07:42:59.064Z,6.03
2023-05-20T07:45:26.570Z,5.68
2023-05-20T07:47:54.189Z,5.60
2023-05-20T07:50:21.807Z,6.38
2023-05-20T07:52:56.627Z,6.03
2023-05-20T07:57:51.917Z,5.57
2023-05-20T08:00:21.274Z,4.78
2023-05-20T08:02:48.822Z,4.75
2023-05-20T08:05:16.530Z,5.40
2023-05-20T08:07:44.042Z,4.95
2023-05-20T08:10:12.006Z,4.57
2023-05-20T08:12:39.526Z,5.35
2023-05-20T08:15:08.233Z,5.90
2023-05-20T08:17:38.607Z,5.63
2023-05-20T08:20:08.192Z,5.10
2023-05-20T08:22:36.042Z,5.40
2023-05-20T08:25:04.003Z,4.90
2023-05-20T08:27:31.528Z,5.43
2023-05-20T08:30:00.645Z,5.35
2023-05-20T08:32:28.743Z,5.68
2023-05-20T08:34:57.558Z,10.73
2023-05-20T08:37:25.038Z,6.28
2023-05-20T08:39:52.483Z,9.00
2023-05-20T08:42:23.566Z,5.47
2023-05-20T08:44:52.533Z,5.57
2023-05-20T08:47:21.677Z,5.80
2023-05-20T08:49:49.319Z,4.93
2023-05-20T08:52:22.077Z,5.20
2023-05-20T08:54:51.463Z,6.20
2023-05-20T08:57:20.281Z,5.80
2023-05-20T08:59:48.133Z,5.95
2023-05-20T09:02:16.147Z,5.38
2023-05-20T09:04:43.777Z,5.50
2023-05-20T09:07:11.348Z,5.97
2023-05-20T09:09:41.168Z,5.82
2023-05-20T09:12:08.774Z,6.35
2023-05-20T09:14:36.375Z,9.35
2023-05-20T09:17:05.619Z,6.75
2023-05-20T09:19:34.489Z,5.80
2023-05-20T09:22:05.039Z,8.10
2023-05-20T09:24:32.613Z,6.13
2023-05-20T09:27:01.622Z,5.75
2023-05-20T09:29:29.194Z,5.85
2023-05-20T09:31:57.405Z,5.88
2023-05-20T09:34:24.983Z,5.75
2023-05-20T09:36:53.179Z,7.53
2023-05-20T09:39:27.121Z,6.20
2023-05-20T09:41:58.625Z,6.50
2023-05-20T09:44:29.030Z,5.75
2023-05-20T09:46:57.892Z,5.65
2023-05-20T09:49:26.893Z,6.25
2023-05-20T09:51:54.734Z,6.43
2023-05-20T09:54:25.552Z,6.28
2023-05-20T09:56:54.314Z,6.40
2023-05-20T09:59:23.334Z,6.80
2023-05-20T10:01:52.200Z,5.95
2023-05-20T10:04:21.752Z,6.00
2023-05-20T10:07:03.249Z,6.70
2023-05-20T10:09:48.410Z,6.03
2023-05-20T10:12:26.771Z,6.43
2023-05-20T10:15:04.014Z,6.85
2023-05-20T10:17:42.625Z,6.35
2023-05-20T10:20:12.057Z,6.10
2023-05-20T10:22:40.578Z,6.22
2023-05-20T10:25:13.921Z,6.47
2023-05-20T10:27:46.322Z,6.05
2023-05-20T10:30:17.492Z,6.88
2023-05-20T10:32:54.462Z,6.03
2023-05-20T10:35:26.222Z,6.10
2023-05-20T10:37:54.827Z,6.43
2023-05-20T10:40:23.342Z,7.20
2023-05-20T10:42:50.843Z,6.10
2023-05-20T10:45:28.924Z,6.13
2023-05-20T10:47:59.185Z,16.90
2023-05-20T10:50:31.394Z,9.30
2023-05-20T10:53:05.842Z,16.55
2023-05-20T10:55:39.222Z,7.13
2023-05-20T10:58:07.643Z,6.72
2023-05-20T11:00:37.345Z,12.25
2023-05-20T11:03:08.272Z,8.63
2023-05-20T11:05:36.980Z,7.15
2023-05-20T11:08:13.673Z,7.00
2023-05-20T11:10:52.069Z,6.78
2023-05-20T11:13:19.686Z,6.70
2023-05-20T11:15:49.749Z,7.50
2023-05-20T11:18:19.065Z,6.65
2023-05-20T11:20:47.693Z,6.53
2023-05-20T11:23:16.321Z,7.18
2023-05-20T11:25:43.947Z,6.22
2023-05-20T11:28:14.021Z,6.53
2023-05-20T11:30:42.206Z,6.10
2023-05-20T11:33:13.684Z,6.95
2023-05-20T11:35:46.996Z,6.85
2023-05-20T11:38:15.006Z,6.88
2023-05-20T11:40:51.142Z,6.82
2023-05-20T11:43:20.040Z,6.28
2023-05-20T11:45:49.645Z,6.35
2023-05-20T11:48:17.218Z,6.65
2023-05-20T11:50:47.740Z,5.70
2023-05-20T11:53:16.491Z,6.10
2023-05-20T11:55:49.426Z,7.18
2023-05-20T11:58:17.570Z,6.35
2023-05-20T12:00:52.875Z,5.82
2023-05-20T12:03:25.234Z,5.93
2023-05-20T12:05:54.456Z,5.45
2023-05-20T12:08:22.565Z,5.13
2023-05-20T12:10:50.150Z,6.45
2023-05-20T12:13:19.180Z,5.07
2023-05-20T12:15:46.740Z,5.07
2023-05-20T12:18:14.271Z,4.90
2023-05-20T12:20:41.787Z,4.07
2023-05-20T12:23:10.626Z,4.38
2023-05-20T12:25:38.089Z,4.20
2023-05-20T12:28:06.715Z,4.40
2023-05-20T12:30:34.456Z,4.38
2023-05-20T12:33:02.445Z,4.60
2023-05-20T12:35:38.294Z,5.32
2023-05-20T12:38:06.022Z,4.90
2023-05-20T12:40:35.875Z,5.95
2023-05-20T12:43:05.873Z,4.32
2023-05-20T12:45:33.421Z,4.78
2023-05-20T12:48:01.257Z,4.43
2023-05-20T12:50:29.319Z,5.07
2023-05-20T12:52:56.861Z,4.75
2023-05-20T12:55:24.445Z,3.97
2023-05-20T12:57:53.544Z,4.13
2023-05-20T13:00:21.052Z,4.63
2023-05-20T13:02:48.757Z,5.65
2023-05-20T13:05:16.337Z,6.20
2023-05-20T13:07:43.831Z,5.63
2023-05-20T13:10:11.999Z,5.00
2023-05-20T13:12:39.589Z,5.25
2023-05-20T13:15:09.667Z,4.60
2023-05-20T13:17:38.102Z,4.65
2023-05-20T13:20:06.540Z,4.93
2023-05-20T13:22:34.109Z,5.68
2023-05-20T13:25:01.753Z,5.63
2023-05-20T13:27:29.270Z,5.63
2023-05-20T13:29:56.769Z,4.78
2023-05-20T13:32:25.717Z,5.30
2023-05-20T13:34:53.322Z,7.40
2023-05-20T13:37:20.918Z,5.13
2023-05-20T13:39:49.440Z,5.63
2023-05-20T13:42:16.915Z,4.75
2023-05-20T13:44:44.439Z,4.68
2023-05-20T13:47:12.033Z,4.30
2023-05-20T13:49:40.895Z,4.18
2023-05-20T13:52:08.390Z,4.22
2023-05-20T13:54:35.936Z,4.28
2023-05-20T13:57:07.711Z,4.43
2023-05-20T13:59:35.695Z,4.20
2023-05-20T14:02:03.328Z,4.70
2023-05-20T14:04:31.513Z,4.20
2023-05-20T14:07:00.458Z,4.47
2023-05-20T14:09:27.962Z,4.32
2023-05-20T14:11:55.606Z,4.13
2023-05-20T14:14:23.264Z,7.88
2023-05-20T14:16:50.815Z,5.68
2023-05-20T14:19:18.424Z,6.65
2023-05-20T14:21:45.966Z,5.53
2023-05-20T14:24:14.852Z,6.65
2023-05-20T14:26:42.379Z,4.38
2023-05-20T14:29:10.044Z,4.72
2023-05-20T14:31:38.565Z,4.50
2023-05-20T14:34:06.132Z,4.22
2023-05-20T14:36:33.716Z,4.93
2023-05-20T14:39:01.239Z,5.25
2023-05-20T14:41:30.102Z,11.40
2023-05-20T14:43:57.719Z,6.22
2023-05-20T14:46:25.498Z,6.88
2023-05-20T14:48:53.060Z,5.57
2023-05-20T14:51:20.612Z,10.00
2023-05-20T14:53:48.142Z,5.68
2023-05-20T14:56:15.731Z,6.78
2023-05-20T14:58:44.598Z,5.45
2023-05-20T15:01:12.229Z,4.47
2023-05-20T15:03:39.836Z,4.85
2023-05-20T15:06:07.678Z,4.50
2023-05-20T15:08:35.137Z,4.43
2023-05-20T15:11:02.613Z,4.72
2023-05-20T15:13:30.116Z,4.30
2023-05-20T15:15:58.977Z,4.93
2023-05-20T15:18:26.514Z,4.43
2023-05-20T15:20:53.996Z,4.82
2023-05-20T15:23:21.531Z,5.32
2023-05-20T15:25:50.221Z,4.70
2023-05-20T15:28:19.520Z,4.68
2023-05-20T15:30:47.458Z,5.38
2023-05-20T15:33:16.377Z,4.95
2023-05-20T15:35:45.796Z,5.15
2023-05-20T15:38:13.346Z,5.30
2023-05-20T15:40:41.347Z,5.13
2023-05-20T15:43:09.089Z,5.13
2023-05-20T15:45:36.754Z,5.13
2023-05-20T15:48:04.587Z,4.72
2023-05-20T15:50:33.655Z,5.07
2023-05-20T15:53:01.475Z,5.22
2023-05-20T15:55:29.003Z,5.18
2023-05-20T15:57:56.523Z,5.32
2023-05-20T16:00:24.693Z,5.40
2023-05-20T16:02:54.013Z,4.80
2023-05-20T16:05:24.519Z,4.93
2023-05-20T16:07:53.707Z,5.22
2023-05-20T16:10:22.439Z,5.70
2023-05-20T16:12:51.513Z,5.13
2023-05-20T16:15:19.196Z,5.40
2023-05-20T16:17:46.671Z,15.52
2023-05-20T16:20:14.427Z,15.52
2023-05-20T16:22:41.909Z,6.40
2023-05-20T16:25:11.768Z,5.55
2023-05-20T16:27:39.357Z,5.47
2023-05-20T16:30:08.909Z,5.05
2023-05-20T16:32:36.434Z,5.60
2023-05-20T16:35:04.773Z,5.63
2023-05-20T16:37:32.317Z,5.53
2023-05-20T16:39:59.791Z,6.20
2023-05-20T16:42:28.619Z,7.13
2023-05-20T16:44:56.156Z,6.18
2023-05-20T16:47:23.665Z,7.22
2023-05-20T16:49:51.161Z,19.80
2023-05-20T16:52:18.703Z,13.43
2023-05-20T16:54:46.553Z,65.60
2023-05-20T16:57:15.878Z,70.45
2023-05-20T16:59:44.809Z,19.20
2023-05-20T17:02:12.364Z,6.45
2023-05-20T17:04:39.999Z,5.72
2023-05-20T17:07:09.708Z,7.78
2023-05-20T17:09:37.492Z,5.18
2023-05-20T17:12:05.581Z,5.65
2023-05-20T17:14:33.388Z,6.07
2023-05-20T17:17:02.264Z,5.50
2023-05-20T17:19:29.903Z,5.13
2023-05-20T17:21:57.400Z,5.63
2023-05-20T17:24:24.869Z,5.85
2023-05-20T17:26:52.366Z,5.28
2023-05-20T17:29:19.878Z,5.38
2023-05-20T17:31:47.619Z,5.72
2023-05-20T17:34:16.624Z,5.40
2023-05-20T17:36:44.278Z,5.82
2023-05-20T17:39:12.238Z,5.88
2023-05-20T17:41:40.931Z,6.15
2023-05-20T17:44:09.875Z,5.97
2023-05-20T17:46:37.498Z,5.20
2023-05-20T17:49:05.065Z,5.78
2023-05-20T17:51:34.162Z,6.10
2023-05-20T17:54:01.800Z,5.82
2023-05-20T17:56:29.412Z,5.45
2023-05-20T17:58:56.890Z,6.32
2023-05-20T18:01:24.474Z,5.60
2023-05-20T18:03:52.161Z,5.40
2023-05-20T18:06:19.766Z,5.72
2023-05-20T18:08:48.687Z,6.50
2023-05-20T18:11:16.235Z,6.35
2023-05-20T18:13:43.751Z,7.45
2023-05-20T18:16:11.341Z,6.63
2023-05-20T18:18:38.920Z,6.57
2023-05-20T18:21:07.707Z,6.80
2023-05-20T18:23:35.389Z,5.93
2023-05-20T18:26:06.937Z,6.13
2023-05-20T18:28:34.630Z,7.18
2023-05-20T18:31:02.216Z,7.10
2023-05-20T18:33:29.703Z,6.88
2023-05-20T18:35:57.217Z,7.50
2023-05-20T18:38:24.759Z,7.25
2023-05-20T18:40:52.308Z,7.40
2023-05-20T18:43:21.164Z,7.05
2023-05-20T18:45:48.662Z,6.97
2023-05-20T18:48:25.595Z,6.57
2023-05-20T18:50:54.421Z,7.53
2023-05-20T18:53:22.085Z,7.07
2023-05-20T18:55:49.585Z,6.80
2023-05-20T18:58:17.509Z,7.88
2023-05-20T19:00:46.567Z,7.50
2023-05-20T19:03:14.118Z,7.47
2023-05-20T19:05:41.715Z,7.97
2023-05-20T19:08:09.312Z,7.97
2023-05-20T19:10:36.826Z,8.02
2023-05-20T19:13:04.337Z,8.25
2023-05-20T19:15:31.903Z,8.45
2023-05-20T19:18:01.355Z,8.52
2023-05-20T19:20:28.833Z,8.35
2023-05-20T19:22:56.418Z,8.25
2023-05-20T19:25:23.895Z,8.32
2023-05-20T19:27:51.491Z,7.90
2023-05-20T19:30:18.973Z,8.05
2023-05-20T19:32:46.469Z,7.80
2023-05-20T19:35:16.326Z,7.20
2023-05-20T19:37:43.821Z,8.27
2023-05-20T19:40:12.694Z,7.90
2023-05-20T19:42:40.215Z,7.65
2023-05-20T19:45:08.923Z,7.65
2023-05-20T19:47:37.109Z,8.13
2023-05-20T19:50:05.238Z,7.95
2023-05-20T19:52:34.032Z,8.57
2023-05-20T19:55:01.772Z,9.57
2023-05-20T19:57:29.260Z,8.30
2023-05-20T19:59:56.756Z,8.35
2023-05-20T20:02:24.279Z,8.95
2023-05-20T20:04:51.884Z,8.57
2023-05-20T20:07:19.390Z,8.10
2023-05-20T20:09:51.353Z,8.57
2023-05-20T20:12:18.903Z,8.95
2023-05-20T20:14:46.485Z,8.52
2023-05-20T20:17:15.622Z,9.10
2023-05-20T20:19:45.961Z,9.10
2023-05-20T20:22:13.546Z,11.50
2023-05-20T20:24:41.123Z,10.48
2023-05-20T20:27:10.495Z,11.65
2023-05-20T20:29:37.993Z,11.10
2023-05-20T20:32:06.394Z,13.38
2023-05-20T20:34:33.959Z,13.18
2023-05-20T20:37:01.859Z,12.82
2023-05-20T20:39:29.688Z,11.57
2023-05-20T20:41:58.862Z,11.23
2023-05-20T20:44:28.986Z,11.20
2023-05-20T20:46:58.159Z,12.30
2023-05-20T20:49:27.649Z,13.95
2023-05-20T20:51:56.036Z,14.07
2023-05-20T20:54:23.543Z,14.10
2023-05-20T20:56:51.811Z,13.68
2023-05-20T20:59:21.901Z,13.20
2023-05-20T21:01:52.657Z,13.00
2023-05-20T21:04:20.246Z,13.23
2023-05-20T21:06:47.769Z,13.43
2023-05-20T21:09:16.132Z,13.38
2023-05-20T21:11:45.175Z,12.50
2023-05-20T21:14:13.579Z,13.05
2023-05-20T21:16:42.009Z,11.32
2023-05-20T21:19:11.057Z,13.32
2023-05-20T21:21:38.592Z,12.07
2023-05-20T21:24:06.596Z,12.90
2023-05-20T21:26:34.151Z,11.27
2023-05-20T21:29:01.661Z,11.60
2023-05-20T21:31:29.280Z,11.77
2023-05-20T21:33:56.839Z,11.63
2023-05-20T21:36:25.726Z,11.27
2023-05-20T21:38:53.231Z,10.95
2023-05-20T21:41:21.358Z,10.80
2023-05-20T21:43:48.857Z,11.38
2023-05-20T21:46:16.395Z,10.48
2023-05-20T21:48:44.117Z,10.73
2023-05-20T21:51:11.772Z,10.43
2023-05-20T21:53:40.618Z,10.77
2023-05-20T21:56:08.293Z,9.73
2023-05-20T21:58:40.616Z,10.57
2023-05-20T22:01:09.456Z,10.32
2023-05-20T22:03:38.174Z,10.13
2023-05-20T22:06:06.401Z,10.30
2023-05-20T22:08:34.623Z,10.93
2023-05-20T22:11:05.359Z,10.38
2023-05-20T22:13:33.841Z,10.65
2023-05-20T22:16:01.912Z,9.70
2023-05-20T22:18:29.918Z,10.25
2023-05-20T22:20:59.108Z,9.60
2023-05-20T22:23:26.956Z,9.88
2023-05-20T22:25:54.954Z,10.13
2023-05-20T22:28:26.069Z,10.70
2023-05-20T22:30:53.568Z,10.75
2023-05-20T22:33:22.612Z,9.13
2023-05-20T22:35:50.172Z,9.13
2023-05-20T22:38:17.716Z,10.02
2023-05-20T22:40:45.294Z,10.32
2023-05-20T22:43:13.855Z,10.95
2023-05-20T22:45:42.844Z,10.65
2023-05-20T22:48:10.459Z,9.60
2023-05-20T22:50:38.014Z,9.95
2023-05-20T22:53:05.915Z,9.77
2023-05-20T22:55:33.733Z,9.63
2023-05-20T22:58:01.472Z,9.23
2023-05-20T23:00:29.489Z,9.60
2023-05-20T23:02:58.549Z,10.25
2023-05-20T23:05:26.349Z,10.27
2023-05-20T23:07:54.806Z,8.90
2023-05-20T23:10:22.545Z,10.32
2023-05-20T23:12:50.139Z,9.90
2023-05-20T23:15:19.184Z,10.20
2023-05-20T23:17:46.727Z,10.52
2023-05-20T23:20:18.983Z,10.40
2023-05-20T23:22:46.523Z,11.65
2023-05-20T23:25:14.047Z,10.27
2023-05-20T23:27:41.645Z,11.55
2023-05-20T23:30:10.481Z,10.98
2023-05-20T23:32:38.090Z,11.35
2023-05-20T23:35:06.634Z,11.52
2023-05-20T23:37:35.595Z,11.40
2023-05-20T23:40:04.712Z,11.75
2023-05-20T23:42:32.453Z,11.73
2023-05-20T23:44:59.958Z,11.88
2023-05-20T23:47:29.784Z,11.98
2023-05-20T23:49:57.392Z,12.13
2023-05-20T23:52:25.080Z,12.25
2023-05-20T23:54:54.049Z,12.05
2023-05-20T23:57:21.841Z,11.48
2023-05-20T23:59:49.611Z,11.82
